sensor_id;sensor_type;location;lat;lon;timestamp;temperature;humidity
9271;DHT22;4673;53.458;9.940;2023-05-25T00:02:10;9.10;96.90
9271;DHT22;4673;53.458;9.940;2023-05-25T00:04:40;9.00;97.20
9271;DHT22;4673;53.458;9.940;2023-05-25T00:07:06;9.00;97.70
9271;DHT22;4673;53.458;9.940;2023-05-25T00:09:32;8.90;97.80
9271;DHT22;4673;53.458;9.940;2023-05-25T00:11:57;8.90;98.30
9271;DHT22;4673;53.458;9.940;2023-05-25T00:14:24;8.80;98.70
9271;DHT22;4673;53.458;9.940;2023-05-25T00:16:50;8.80;98.90
9271;DHT22;4673;53.458;9.940;2023-05-25T00:19:16;8.80;99.10
9271;DHT22;4673;53.458;9.940;2023-05-25T00:21:43;8.80;99.30
9271;DHT22;4673;53.458;9.940;2023-05-25T00:24:13;8.70;99.60
9271;DHT22;4673;53.458;9.940;2023-05-25T00:26:38;8.70;99.70
9271;DHT22;4673;53.458;9.940;2023-05-25T00:29:04;8.70;99.90
9271;DHT22;4673;53.458;9.940;2023-05-25T00:31:30;8.70;99.90
9271;DHT22;4673;53.458;9.940;2023-05-25T00:33:57;8.70;99.90
9271;DHT22;4673;53.458;9.940;2023-05-25T00:36:24;8.60;99.90
9271;DHT22;4673;53.458;9.940;2023-05-25T00:38:50;8.70;99.90
9271;DHT22;4673;53.458;9.940;2023-05-25T00:41:16;8.70;99.90
9271;DHT22;4673;53.458;9.940;2023-05-25T00:43:44;8.80;99.90
9271;DHT22;4673;53.458;9.940;2023-05-25T00:46:13;8.80;99.90
9271;DHT22;4673;53.458;9.940;2023-05-25T00:48:39;8.80;99.90
9271;DHT22;4673;53.458;9.940;2023-05-25T00:51:06;8.80;99.90
9271;DHT22;4673;53.458;9.940;2023-05-25T00:53:31;8.80;99.90
9271;DHT22;4673;53.458;9.940;2023-05-25T00:56:09;8.70;99.90
9271;DHT22;4673;53.458;9.940;2023-05-25T00:58:39;8.60;99.90
9271;DHT22;4673;53.458;9.940;2023-05-25T01:01:08;8.60;99.90
9271;DHT22;4673;53.458;9.940;2023-05-25T01:03:38;8.60;99.90
9271;DHT22;4673;53.458;9.940;2023-05-25T01:06:10;8.60;99.90
9271;DHT22;4673;53.458;9.940;2023-05-25T01:08:43;8.60;99.90
9271;DHT22;4673;53.458;9.940;2023-05-25T01:11:10;8.60;99.90
9271;DHT22;4673;53.458;9.940;2023-05-25T01:13:39;8.60;99.90
9271;DHT22;4673;53.458;9.940;2023-05-25T01:16:06;8.60;99.90
9271;DHT22;4673;53.458;9.940;2023-05-25T01:18:33;8.60;99.90
9271;DHT22;4673;53.458;9.940;2023-05-25T01:23:42;8.60;99.90
9271;DHT22;4673;53.458;9.940;2023-05-25T01:26:14;8.50;99.90
9271;DHT22;4673;53.458;9.940;2023-05-25T01:28:46;8.50;99.90
9271;DHT22;4673;53.458;9.940;2023-05-25T01:31:13;8.50;99.90
9271;DHT22;4673;53.458;9.940;2023-05-25T01:33:42;8.50;99.90
9271;DHT22;4673;53.458;9.940;2023-05-25T01:36:08;8.40;99.90
9271;DHT22;4673;53.458;9.940;2023-05-25T01:38:34;8.40;99.90
9271;DHT22;4673;53.458;9.940;2023-05-25T01:41:01;8.40;99.90
9271;DHT22;4673;53.458;9.940;2023-05-25T01:43:27;8.40;99.90
9271;DHT22;4673;53.458;9.940;2023-05-25T01:45:56;8.80;99.90
9271;DHT22;4673;53.458;9.940;2023-05-25T01:54:34;8.40;99.90
9271;DHT22;4673;53.458;9.940;2023-05-25T01:57:00;8.50;99.90
9271;DHT22;4673;53.458;9.940;2023-05-25T01:59:28;8.50;99.90
9271;DHT22;4673;53.458;9.940;2023-05-25T02:01:55;8.50;99.90
9271;DHT22;4673;53.458;9.940;2023-05-25T02:04:24;8.40;99.90
9271;DHT22;4673;53.458;9.940;2023-05-25T02:06:53;8.40;99.90
9271;DHT22;4673;53.458;9.940;2023-05-25T02:09:19;8.40;99.90
9271;DHT22;4673;53.458;9.940;2023-05-25T02:11:44;8.40;99.90
9271;DHT22;4673;53.458;9.940;2023-05-25T02:14:10;8.40;99.90
9271;DHT22;4673;53.458;9.940;2023-05-25T02:16:36;8.40;99.90
9271;DHT22;4673;53.458;9.940;2023-05-25T02:19:01;8.30;99.90
9271;DHT22;4673;53.458;9.940;2023-05-25T02:21:27;8.30;99.90
9271;DHT22;4673;53.458;9.940;2023-05-25T02:23:53;8.30;99.90
9271;DHT22;4673;53.458;9.940;2023-05-25T02:26:19;8.30;99.90
9271;DHT22;4673;53.458;9.940;2023-05-25T02:28:45;8.30;99.90
9271;DHT22;4673;53.458;9.940;2023-05-25T02:31:10;8.30;99.90
9271;DHT22;4673;53.458;9.940;2023-05-25T02:33:36;8.30;99.90
9271;DHT22;4673;53.458;9.940;2023-05-25T02:36:02;8.30;99.90
9271;DHT22;4673;53.458;9.940;2023-05-25T02:38:27;8.30;99.90
9271;DHT22;4673;53.458;9.940;2023-05-25T02:40:54;8.30;99.90
9271;DHT22;4673;53.458;9.940;2023-05-25T02:43:20;8.40;99.90
9271;DHT22;4673;53.458;9.940;2023-05-25T02:45:45;8.40;99.90
9271;DHT22;4673;53.458;9.940;2023-05-25T02:48:11;8.50;99.90
9271;DHT22;4673;53.458;9.940;2023-05-25T02:50:36;8.50;99.90
9271;DHT22;4673;53.458;9.940;2023-05-25T02:53:03;8.60;99.90
9271;DHT22;4673;53.458;9.940;2023-05-25T02:55:28;8.70;99.90
9271;DHT22;4673;53.458;9.940;2023-05-25T02:57:54;8.60;99.90
9271;DHT22;4673;53.458;9.940;2023-05-25T03:00:20;8.80;99.90
9271;DHT22;4673;53.458;9.940;2023-05-25T03:02:45;8.80;99.90
9271;DHT22;4673;53.458;9.940;2023-05-25T03:05:13;8.70;99.90
9271;DHT22;4673;53.458;9.940;2023-05-25T03:07:39;8.70;99.90
9271;DHT22;4673;53.458;9.940;2023-05-25T03:10:06;8.60;99.90
9271;DHT22;4673;53.458;9.940;2023-05-25T03:12:32;8.70;99.90
9271;DHT22;4673;53.458;9.940;2023-05-25T03:14:57;8.70;99.90
9271;DHT22;4673;53.458;9.940;2023-05-25T03:17:23;8.80;99.90
9271;DHT22;4673;53.458;9.940;2023-05-25T03:19:49;8.80;99.90
9271;DHT22;4673;53.458;9.940;2023-05-25T03:22:14;8.90;99.90
9271;DHT22;4673;53.458;9.940;2023-05-25T03:24:40;9.00;99.90
9271;DHT22;4673;53.458;9.940;2023-05-25T03:27:06;9.10;99.90
9271;DHT22;4673;53.458;9.940;2023-05-25T03:29:33;9.20;99.90
9271;DHT22;4673;53.458;9.940;2023-05-25T03:31:58;9.30;99.90
9271;DHT22;4673;53.458;9.940;2023-05-25T03:34:24;9.40;99.90
9271;DHT22;4673;53.458;9.940;2023-05-25T03:36:50;9.30;99.90
9271;DHT22;4673;53.458;9.940;2023-05-25T03:39:18;9.40;99.90
9271;DHT22;4673;53.458;9.940;2023-05-25T03:41:46;9.40;99.90
9271;DHT22;4673;53.458;9.940;2023-05-25T03:44:12;9.40;99.90
9271;DHT22;4673;53.458;9.940;2023-05-25T03:46:38;9.50;99.90
9271;DHT22;4673;53.458;9.940;2023-05-25T03:49:04;9.50;99.90
9271;DHT22;4673;53.458;9.940;2023-05-25T03:51:30;9.50;99.90
9271;DHT22;4673;53.458;9.940;2023-05-25T03:53:55;9.50;99.90
9271;DHT22;4673;53.458;9.940;2023-05-25T03:56:21;9.50;99.90
9271;DHT22;4673;53.458;9.940;2023-05-25T03:58:47;9.60;99.90
9271;DHT22;4673;53.458;9.940;2023-05-25T04:01:13;9.60;99.90
9271;DHT22;4673;53.458;9.940;2023-05-25T04:03:39;9.60;99.90
9271;DHT22;4673;53.458;9.940;2023-05-25T04:06:05;9.60;99.90
9271;DHT22;4673;53.458;9.940;2023-05-25T04:08:30;9.70;99.90
9271;DHT22;4673;53.458;9.940;2023-05-25T04:10:56;9.70;99.90
9271;DHT22;4673;53.458;9.940;2023-05-25T04:13:22;9.70;99.90
9271;DHT22;4673;53.458;9.940;2023-05-25T04:15:51;9.80;99.90
9271;DHT22;4673;53.458;9.940;2023-05-25T04:18:17;9.90;99.90
9271;DHT22;4673;53.458;9.940;2023-05-25T04:20:45;10.00;99.90
9271;DHT22;4673;53.458;9.940;2023-05-25T04:23:10;9.90;99.90
9271;DHT22;4673;53.458;9.940;2023-05-25T04:25:36;9.90;99.90
9271;DHT22;4673;53.458;9.940;2023-05-25T04:28:02;9.90;99.90
9271;DHT22;4673;53.458;9.940;2023-05-25T04:30:27;9.80;99.90
9271;DHT22;4673;53.458;9.940;2023-05-25T04:32:53;9.60;99.90
9271;DHT22;4673;53.458;9.940;2023-05-25T04:35:19;9.60;99.90
9271;DHT22;4673;53.458;9.940;2023-05-25T04:37:45;9.60;99.90
9271;DHT22;4673;53.458;9.940;2023-05-25T04:40:12;9.50;99.90
9271;DHT22;4673;53.458;9.940;2023-05-25T04:42:39;9.50;99.90
9271;DHT22;4673;53.458;9.940;2023-05-25T04:45:07;9.40;99.90
9271;DHT22;4673;53.458;9.940;2023-05-25T04:47:35;9.60;99.90
9271;DHT22;4673;53.458;9.940;2023-05-25T04:50:02;9.50;99.90
9271;DHT22;4673;53.458;9.940;2023-05-25T04:52:28;9.60;99.90
9271;DHT22;4673;53.458;9.940;2023-05-25T04:54:54;9.60;99.90
9271;DHT22;4673;53.458;9.940;2023-05-25T04:57:20;9.60;99.90
9271;DHT22;4673;53.458;9.940;2023-05-25T04:59:45;9.70;99.90
9271;DHT22;4673;53.458;9.940;2023-05-25T05:02:11;9.80;99.90
9271;DHT22;4673;53.458;9.940;2023-05-25T05:04:37;9.80;99.90
9271;DHT22;4673;53.458;9.940;2023-05-25T05:07:03;9.90;99.90
9271;DHT22;4673;53.458;9.940;2023-05-25T05:09:28;9.90;99.20
9271;DHT22;4673;53.458;9.940;2023-05-25T05:11:54;9.90;99.70
9271;DHT22;4673;53.458;9.940;2023-05-25T05:14:20;10.10;99.90
9271;DHT22;4673;53.458;9.940;2023-05-25T05:16:45;10.20;97.90
9271;DHT22;4673;53.458;9.940;2023-05-25T05:19:12;10.10;96.20
9271;DHT22;4673;53.458;9.940;2023-05-25T05:21:38;10.20;97.70
9271;DHT22;4673;53.458;9.940;2023-05-25T05:24:04;10.50;97.70
9271;DHT22;4673;53.458;9.940;2023-05-25T05:26:29;10.60;94.90
9271;DHT22;4673;53.458;9.940;2023-05-25T05:28:55;10.70;95.30
9271;DHT22;4673;53.458;9.940;2023-05-25T05:31:21;11.00;95.60
9271;DHT22;4673;53.458;9.940;2023-05-25T05:33:48;11.10;94.30
9271;DHT22;4673;53.458;9.940;2023-05-25T05:36:14;11.10;92.30
9271;DHT22;4673;53.458;9.940;2023-05-25T05:38:39;10.90;90.40
9271;DHT22;4673;53.458;9.940;2023-05-25T05:41:06;10.70;91.50
9271;DHT22;4673;53.458;9.940;2023-05-25T05:43:38;10.80;91.80
9271;DHT22;4673;53.458;9.940;2023-05-25T05:46:04;10.90;92.90
9271;DHT22;4673;53.458;9.940;2023-05-25T05:48:29;11.00;91.80
9271;DHT22;4673;53.458;9.940;2023-05-25T05:50:55;11.30;90.80
9271;DHT22;4673;53.458;9.940;2023-05-25T05:53:21;11.60;91.10
9271;DHT22;4673;53.458;9.940;2023-05-25T05:55:46;12.30;91.10
9271;DHT22;4673;53.458;9.940;2023-05-25T05:58:12;12.90;87.00
9271;DHT22;4673;53.458;9.940;2023-05-25T06:00:38;12.80;82.10
9271;DHT22;4673;53.458;9.940;2023-05-25T06:03:03;12.70;81.70
9271;DHT22;4673;53.458;9.940;2023-05-25T06:05:30;12.80;82.10
9271;DHT22;4673;53.458;9.940;2023-05-25T06:07:55;12.80;80.80
9271;DHT22;4673;53.458;9.940;2023-05-25T06:10:21;12.80;77.80
9271;DHT22;4673;53.458;9.940;2023-05-25T06:12:47;12.30;79.30
9271;DHT22;4673;53.458;9.940;2023-05-25T06:15:12;12.30;81.80
9271;DHT22;4673;53.458;9.940;2023-05-25T06:17:38;12.30;80.40
9271;DHT22;4673;53.458;9.940;2023-05-25T06:20:04;12.10;80.30
9271;DHT22;4673;53.458;9.940;2023-05-25T06:22:31;12.20;82.20
9271;DHT22;4673;53.458;9.940;2023-05-25T06:24:57;12.20;80.80
9271;DHT22;4673;53.458;9.940;2023-05-25T06:27:23;12.00;79.30
9271;DHT22;4673;53.458;9.940;2023-05-25T06:29:48;11.90;80.60
9271;DHT22;4673;53.458;9.940;2023-05-25T06:32:14;11.80;79.20
9271;DHT22;4673;53.458;9.940;2023-05-25T06:34:40;11.90;79.50
9271;DHT22;4673;53.458;9.940;2023-05-25T06:37:06;11.90;79.80
9271;DHT22;4673;53.458;9.940;2023-05-25T06:39:31;12.10;79.80
9271;DHT22;4673;53.458;9.940;2023-05-25T06:41:57;12.20;78.70
9271;DHT22;4673;53.458;9.940;2023-05-25T06:44:23;12.30;78.00
9271;DHT22;4673;53.458;9.940;2023-05-25T06:46:48;12.50;78.20
9271;DHT22;4673;53.458;9.940;2023-05-25T06:49:14;12.70;76.40
9271;DHT22;4673;53.458;9.940;2023-05-25T06:51:40;12.70;75.20
9271;DHT22;4673;53.458;9.940;2023-05-25T06:54:05;12.70;75.00
9271;DHT22;4673;53.458;9.940;2023-05-25T06:56:33;12.90;73.50
9271;DHT22;4673;53.458;9.940;2023-05-25T06:58:58;12.80;71.30
9271;DHT22;4673;53.458;9.940;2023-05-25T07:01:24;12.70;72.10
9271;DHT22;4673;53.458;9.940;2023-05-25T07:03:50;12.80;72.20
9271;DHT22;4673;53.458;9.940;2023-05-25T07:06:15;12.80;72.20
9271;DHT22;4673;53.458;9.940;2023-05-25T07:08:41;12.90;70.20
9271;DHT22;4673;53.458;9.940;2023-05-25T07:11:07;12.80;70.60
9271;DHT22;4673;53.458;9.940;2023-05-25T07:13:36;13.10;69.70
9271;DHT22;4673;53.458;9.940;2023-05-25T07:16:02;13.10;69.40
9271;DHT22;4673;53.458;9.940;2023-05-25T07:18:27;13.00;68.30
9271;DHT22;4673;53.458;9.940;2023-05-25T07:20:53;13.00;68.80
9271;DHT22;4673;53.458;9.940;2023-05-25T07:23:19;13.30;69.00
9271;DHT22;4673;53.458;9.940;2023-05-25T07:25:45;13.50;67.10
9271;DHT22;4673;53.458;9.940;2023-05-25T07:28:10;13.30;65.50
9271;DHT22;4673;53.458;9.940;2023-05-25T07:30:36;13.20;67.30
9271;DHT22;4673;53.458;9.940;2023-05-25T07:33:02;13.30;67.40
9271;DHT22;4673;53.458;9.940;2023-05-25T07:35:27;13.50;66.70
9271;DHT22;4673;53.458;9.940;2023-05-25T07:38:00;13.30;66.10
9271;DHT22;4673;53.458;9.940;2023-05-25T07:40:27;13.20;65.00
9271;DHT22;4673;53.458;9.940;2023-05-25T07:42:53;13.10;65.50
9271;DHT22;4673;53.458;9.940;2023-05-25T07:45:18;12.90;66.20
9271;DHT22;4673;53.458;9.940;2023-05-25T07:47:45;13.00;65.10
9271;DHT22;4673;53.458;9.940;2023-05-25T07:50:11;13.20;66.70
9271;DHT22;4673;53.458;9.940;2023-05-25T07:52:36;13.40;66.20
9271;DHT22;4673;53.458;9.940;2023-05-25T07:55:06;13.60;66.20
9271;DHT22;4673;53.458;9.940;2023-05-25T07:57:32;13.80;65.10
9271;DHT22;4673;53.458;9.940;2023-05-25T07:59:58;13.70;62.70
9271;DHT22;4673;53.458;9.940;2023-05-25T08:02:24;13.70;63.30
9271;DHT22;4673;53.458;9.940;2023-05-25T08:04:49;13.40;64.30
9271;DHT22;4673;53.458;9.940;2023-05-25T08:07:18;13.60;65.40
9271;DHT22;4673;53.458;9.940;2023-05-25T08:09:44;13.70;62.40
9271;DHT22;4673;53.458;9.940;2023-05-25T08:12:09;13.70;61.50
9271;DHT22;4673;53.458;9.940;2023-05-25T08:14:35;13.70;63.10
9271;DHT22;4673;53.458;9.940;2023-05-25T08:17:00;13.80;63.00
9271;DHT22;4673;53.458;9.940;2023-05-25T08:19:27;13.80;62.50
9271;DHT22;4673;53.458;9.940;2023-05-25T08:21:55;13.80;62.10
9271;DHT22;4673;53.458;9.940;2023-05-25T08:24:21;14.00;63.00
9271;DHT22;4673;53.458;9.940;2023-05-25T08:26:49;14.40;62.20
9271;DHT22;4673;53.458;9.940;2023-05-25T08:29:15;14.50;57.60
9271;DHT22;4673;53.458;9.940;2023-05-25T08:31:41;14.20;59.20
9271;DHT22;4673;53.458;9.940;2023-05-25T08:34:09;14.40;60.00
9271;DHT22;4673;53.458;9.940;2023-05-25T08:36:34;14.50;60.90
9271;DHT22;4673;53.458;9.940;2023-05-25T08:39:01;14.60;59.10
9271;DHT22;4673;53.458;9.940;2023-05-25T08:41:28;14.70;58.50
9271;DHT22;4673;53.458;9.940;2023-05-25T08:43:54;14.90;57.60
9271;DHT22;4673;53.458;9.940;2023-05-25T08:46:30;14.60;54.10
9271;DHT22;4673;53.458;9.940;2023-05-25T08:49:04;14.70;57.20
9271;DHT22;4673;53.458;9.940;2023-05-25T08:51:38;14.80;52.80
9271;DHT22;4673;53.458;9.940;2023-05-25T08:54:11;14.80;52.70
9271;DHT22;4673;53.458;9.940;2023-05-25T08:57:14;15.00;54.10
9271;DHT22;4673;53.458;9.940;2023-05-25T09:00:04;15.10;54.40
9271;DHT22;4673;53.458;9.940;2023-05-25T09:02:44;15.10;55.10
9271;DHT22;4673;53.458;9.940;2023-05-25T09:05:14;15.10;53.20
9271;DHT22;4673;53.458;9.940;2023-05-25T09:07:43;15.10;52.10
9271;DHT22;4673;53.458;9.940;2023-05-25T09:10:13;14.90;52.90
9271;DHT22;4673;53.458;9.940;2023-05-25T09:12:41;15.00;52.20
9271;DHT22;4673;53.458;9.940;2023-05-25T09:15:09;15.10;49.60
9271;DHT22;4673;53.458;9.940;2023-05-25T09:17:35;15.20;51.00
9271;DHT22;4673;53.458;9.940;2023-05-25T09:20:01;15.40;50.40
9271;DHT22;4673;53.458;9.940;2023-05-25T09:22:27;15.30;50.50
9271;DHT22;4673;53.458;9.940;2023-05-25T09:24:53;15.10;51.40
9271;DHT22;4673;53.458;9.940;2023-05-25T09:27:21;15.20;50.80
9271;DHT22;4673;53.458;9.940;2023-05-25T09:29:48;15.20;51.10
9271;DHT22;4673;53.458;9.940;2023-05-25T09:32:15;15.20;52.00
9271;DHT22;4673;53.458;9.940;2023-05-25T09:34:42;15.30;52.20
9271;DHT22;4673;53.458;9.940;2023-05-25T09:37:13;15.60;52.70
9271;DHT22;4673;53.458;9.940;2023-05-25T09:39:41;15.70;51.60
9271;DHT22;4673;53.458;9.940;2023-05-25T09:42:07;15.70;50.20
9271;DHT22;4673;53.458;9.940;2023-05-25T09:44:33;15.70;50.30
9271;DHT22;4673;53.458;9.940;2023-05-25T09:46:59;15.90;50.70
9271;DHT22;4673;53.458;9.940;2023-05-25T09:49:25;15.90;49.40
9271;DHT22;4673;53.458;9.940;2023-05-25T09:51:51;15.80;47.90
9271;DHT22;4673;53.458;9.940;2023-05-25T09:54:17;15.90;48.80
9271;DHT22;4673;53.458;9.940;2023-05-25T09:56:43;15.90;46.70
9271;DHT22;4673;53.458;9.940;2023-05-25T09:59:10;15.60;46.30
9271;DHT22;4673;53.458;9.940;2023-05-25T10:01:36;15.40;41.50
9271;DHT22;4673;53.458;9.940;2023-05-25T10:04:02;15.30;46.30
9271;DHT22;4673;53.458;9.940;2023-05-25T10:06:28;15.30;47.80
9271;DHT22;4673;53.458;9.940;2023-05-25T10:08:56;15.30;46.30
9271;DHT22;4673;53.458;9.940;2023-05-25T10:11:23;15.30;45.70
9271;DHT22;4673;53.458;9.940;2023-05-25T10:13:49;15.40;47.40
9271;DHT22;4673;53.458;9.940;2023-05-25T10:16:17;15.80;48.20
9271;DHT22;4673;53.458;9.940;2023-05-25T10:18:51;16.00;47.10
9271;DHT22;4673;53.458;9.940;2023-05-25T10:21:19;16.20;46.10
9271;DHT22;4673;53.458;9.940;2023-05-25T10:23:50;16.20;45.00
9271;DHT22;4673;53.458;9.940;2023-05-25T10:26:23;16.10;46.20
9271;DHT22;4673;53.458;9.940;2023-05-25T10:28:50;16.30;47.20
9271;DHT22;4673;53.458;9.940;2023-05-25T10:31:17;16.60;45.30
9271;DHT22;4673;53.458;9.940;2023-05-25T10:33:45;16.50;46.30
9271;DHT22;4673;53.458;9.940;2023-05-25T10:36:11;16.40;46.30
9271;DHT22;4673;53.458;9.940;2023-05-25T10:38:40;16.20;44.20
9271;DHT22;4673;53.458;9.940;2023-05-25T10:41:09;15.80;43.90
9271;DHT22;4673;53.458;9.940;2023-05-25T10:43:36;16.00;46.20
9271;DHT22;4673;53.458;9.940;2023-05-25T10:46:01;16.10;44.20
9271;DHT22;4673;53.458;9.940;2023-05-25T10:48:38;16.10;44.30
9271;DHT22;4673;53.458;9.940;2023-05-25T10:51:04;16.30;45.80
9271;DHT22;4673;53.458;9.940;2023-05-25T10:53:31;16.50;44.40
9271;DHT22;4673;53.458;9.940;2023-05-25T10:56:00;16.40;42.80
9271;DHT22;4673;53.458;9.940;2023-05-25T10:58:28;16.70;42.80
9271;DHT22;4673;53.458;9.940;2023-05-25T11:01:06;16.90;41.00
9271;DHT22;4673;53.458;9.940;2023-05-25T11:04:12;17.00;40.10
9271;DHT22;4673;53.458;9.940;2023-05-25T11:09:27;16.70;40.70
9271;DHT22;4673;53.458;9.940;2023-05-25T11:14:33;16.80;41.80
9271;DHT22;4673;53.458;9.940;2023-05-25T11:22:48;17.50;38.60
9271;DHT22;4673;53.458;9.940;2023-05-25T11:25:38;17.70;36.50
9271;DHT22;4673;53.458;9.940;2023-05-25T11:28:06;18.20;35.50
9271;DHT22;4673;53.458;9.940;2023-05-25T11:30:32;18.40;34.70
9271;DHT22;4673;53.458;9.940;2023-05-25T11:33:01;18.20;35.60
9271;DHT22;4673;53.458;9.940;2023-05-25T11:35:27;17.70;37.60
9271;DHT22;4673;53.458;9.940;2023-05-25T11:37:53;17.40;38.80
9271;DHT22;4673;53.458;9.940;2023-05-25T11:40:22;17.00;39.60
9271;DHT22;4673;53.458;9.940;2023-05-25T11:42:50;16.40;40.70
9271;DHT22;4673;53.458;9.940;2023-05-25T11:45:20;16.20;43.90
9271;DHT22;4673;53.458;9.940;2023-05-25T11:47:46;16.10;42.70
9271;DHT22;4673;53.458;9.940;2023-05-25T11:50:15;16.10;43.40
9271;DHT22;4673;53.458;9.940;2023-05-25T11:52:44;16.30;42.80
9271;DHT22;4673;53.458;9.940;2023-05-25T11:55:14;16.10;43.20
9271;DHT22;4673;53.458;9.940;2023-05-25T11:57:40;16.00;43.90
9271;DHT22;4673;53.458;9.940;2023-05-25T12:00:06;16.20;44.80
9271;DHT22;4673;53.458;9.940;2023-05-25T12:02:39;16.50;44.50
9271;DHT22;4673;53.458;9.940;2023-05-25T12:05:08;16.90;43.00
9271;DHT22;4673;53.458;9.940;2023-05-25T12:07:44;17.00;40.00
9271;DHT22;4673;53.458;9.940;2023-05-25T12:10:13;16.90;39.70
9271;DHT22;4673;53.458;9.940;2023-05-25T12:12:42;16.60;38.90
9271;DHT22;4673;53.458;9.940;2023-05-25T12:15:10;16.40;42.10
9271;DHT22;4673;53.458;9.940;2023-05-25T12:17:40;16.40;41.80
9271;DHT22;4673;53.458;9.940;2023-05-25T12:20:06;16.30;43.20
9271;DHT22;4673;53.458;9.940;2023-05-25T12:22:33;16.60;44.20
9271;DHT22;4673;53.458;9.940;2023-05-25T12:24:59;17.00;41.90
9271;DHT22;4673;53.458;9.940;2023-05-25T12:27:24;17.20;39.40
9271;DHT22;4673;53.458;9.940;2023-05-25T12:29:50;17.00;36.80
9271;DHT22;4673;53.458;9.940;2023-05-25T12:32:17;16.90;38.90
9271;DHT22;4673;53.458;9.940;2023-05-25T12:34:43;16.60;41.60
9271;DHT22;4673;53.458;9.940;2023-05-25T12:37:19;16.70;42.10
9271;DHT22;4673;53.458;9.940;2023-05-25T12:39:45;16.70;40.80
9271;DHT22;4673;53.458;9.940;2023-05-25T12:42:13;16.80;42.70
9271;DHT22;4673;53.458;9.940;2023-05-25T12:44:43;16.90;41.80
9271;DHT22;4673;53.458;9.940;2023-05-25T12:49:38;16.90;39.00
9271;DHT22;4673;53.458;9.940;2023-05-25T12:52:04;16.60;40.50
9271;DHT22;4673;53.458;9.940;2023-05-25T12:54:37;16.60;41.80
9271;DHT22;4673;53.458;9.940;2023-05-25T12:57:06;16.90;41.70
9271;DHT22;4673;53.458;9.940;2023-05-25T12:59:35;17.00;41.00
9271;DHT22;4673;53.458;9.940;2023-05-25T13:02:02;17.00;40.00
9271;DHT22;4673;53.458;9.940;2023-05-25T13:04:29;17.00;41.20
9271;DHT22;4673;53.458;9.940;2023-05-25T13:06:54;17.10;41.10
9271;DHT22;4673;53.458;9.940;2023-05-25T13:09:24;17.10;40.10
9271;DHT22;4673;53.458;9.940;2023-05-25T13:11:55;16.80;40.70
9271;DHT22;4673;53.458;9.940;2023-05-25T13:14:22;16.60;41.70
9271;DHT22;4673;53.458;9.940;2023-05-25T13:16:52;16.90;42.00
9271;DHT22;4673;53.458;9.940;2023-05-25T13:19:19;16.80;39.40
9271;DHT22;4673;53.458;9.940;2023-05-25T13:21:46;16.90;41.30
9271;DHT22;4673;53.458;9.940;2023-05-25T13:24:14;17.00;41.30
9271;DHT22;4673;53.458;9.940;2023-05-25T13:26:41;17.20;39.20
9271;DHT22;4673;53.458;9.940;2023-05-25T13:29:08;17.00;38.70
9271;DHT22;4673;53.458;9.940;2023-05-25T13:31:33;16.80;40.40
9271;DHT22;4673;53.458;9.940;2023-05-25T13:33:59;16.70;41.00
9271;DHT22;4673;53.458;9.940;2023-05-25T13:36:25;16.80;40.60
9271;DHT22;4673;53.458;9.940;2023-05-25T13:38:50;17.00;41.40
9271;DHT22;4673;53.458;9.940;2023-05-25T13:41:16;17.20;41.40
9271;DHT22;4673;53.458;9.940;2023-05-25T13:43:43;17.30;41.40
9271;DHT22;4673;53.458;9.940;2023-05-25T13:46:09;17.10;41.30
9271;DHT22;4673;53.458;9.940;2023-05-25T13:48:34;17.20;40.80
9271;DHT22;4673;53.458;9.940;2023-05-25T13:51:00;17.30;41.70
9271;DHT22;4673;53.458;9.940;2023-05-25T13:53:27;17.40;40.70
9271;DHT22;4673;53.458;9.940;2023-05-25T13:55:55;17.20;40.80
9271;DHT22;4673;53.458;9.940;2023-05-25T13:58:20;17.20;41.00
9271;DHT22;4673;53.458;9.940;2023-05-25T14:00:47;17.30;41.70
9271;DHT22;4673;53.458;9.940;2023-05-25T14:03:12;17.50;41.70
9271;DHT22;4673;53.458;9.940;2023-05-25T14:05:38;17.60;41.00
9271;DHT22;4673;53.458;9.940;2023-05-25T14:08:04;17.70;41.10
9271;DHT22;4673;53.458;9.940;2023-05-25T14:10:31;17.50;40.80
9271;DHT22;4673;53.458;9.940;2023-05-25T14:12:56;17.50;41.00
9271;DHT22;4673;53.458;9.940;2023-05-25T14:15:22;17.60;41.50
9271;DHT22;4673;53.458;9.940;2023-05-25T14:17:49;17.60;40.50
9271;DHT22;4673;53.458;9.940;2023-05-25T14:20:15;17.50;42.10
9271;DHT22;4673;53.458;9.940;2023-05-25T14:22:46;17.50;42.40
9271;DHT22;4673;53.458;9.940;2023-05-25T14:25:11;17.60;41.50
9271;DHT22;4673;53.458;9.940;2023-05-25T14:27:37;17.60;41.50
9271;DHT22;4673;53.458;9.940;2023-05-25T14:30:03;17.50;41.40
9271;DHT22;4673;53.458;9.940;2023-05-25T14:32:28;17.40;42.00
9271;DHT22;4673;53.458;9.940;2023-05-25T14:34:54;17.40;42.40
9271;DHT22;4673;53.458;9.940;2023-05-25T14:37:20;17.40;42.70
9271;DHT22;4673;53.458;9.940;2023-05-25T14:39:45;17.50;42.10
9271;DHT22;4673;53.458;9.940;2023-05-25T14:42:11;17.50;42.00
9271;DHT22;4673;53.458;9.940;2023-05-25T14:44:37;17.50;42.60
9271;DHT22;4673;53.458;9.940;2023-05-25T14:47:02;17.60;42.50
9271;DHT22;4673;53.458;9.940;2023-05-25T14:49:28;17.60;42.60
9271;DHT22;4673;53.458;9.940;2023-05-25T14:51:54;17.70;42.40
9271;DHT22;4673;53.458;9.940;2023-05-25T14:54:19;17.80;42.80
9271;DHT22;4673;53.458;9.940;2023-05-25T14:56:46;17.70;42.40
9271;DHT22;4673;53.458;9.940;2023-05-25T14:59:11;17.60;43.90
9271;DHT22;4673;53.458;9.940;2023-05-25T15:01:37;17.70;43.80
9271;DHT22;4673;53.458;9.940;2023-05-25T15:04:03;17.50;44.10
9271;DHT22;4673;53.458;9.940;2023-05-25T15:06:28;17.40;44.30
9271;DHT22;4673;53.458;9.940;2023-05-25T15:08:56;17.20;46.00
9271;DHT22;4673;53.458;9.940;2023-05-25T15:11:22;17.20;47.20
9271;DHT22;4673;53.458;9.940;2023-05-25T15:13:47;17.40;47.90
9271;DHT22;4673;53.458;9.940;2023-05-25T15:16:13;17.50;47.40
9271;DHT22;4673;53.458;9.940;2023-05-25T15:18:40;17.40;47.60
9271;DHT22;4673;53.458;9.940;2023-05-25T15:21:05;17.40;48.80
9271;DHT22;4673;53.458;9.940;2023-05-25T15:23:31;17.40;48.50
9271;DHT22;4673;53.458;9.940;2023-05-25T15:25:57;17.40;49.60
9271;DHT22;4673;53.458;9.940;2023-05-25T15:28:27;17.30;49.80
9271;DHT22;4673;53.458;9.940;2023-05-25T15:30:53;17.10;51.20
9271;DHT22;4673;53.458;9.940;2023-05-25T15:33:18;16.90;51.70
9271;DHT22;4673;53.458;9.940;2023-05-25T15:35:44;16.90;53.10
9271;DHT22;4673;53.458;9.940;2023-05-25T15:38:10;17.00;52.90
9271;DHT22;4673;53.458;9.940;2023-05-25T15:40:35;16.90;53.50
9271;DHT22;4673;53.458;9.940;2023-05-25T15:43:01;16.90;53.90
9271;DHT22;4673;53.458;9.940;2023-05-25T15:45:27;17.00;53.70
9271;DHT22;4673;53.458;9.940;2023-05-25T15:47:53;17.00;54.20
9271;DHT22;4673;53.458;9.940;2023-05-25T15:50:18;17.10;53.60
9271;DHT22;4673;53.458;9.940;2023-05-25T15:52:44;17.10;53.70
9271;DHT22;4673;53.458;9.940;2023-05-25T15:55:11;17.00;53.80
9271;DHT22;4673;53.458;9.940;2023-05-25T15:57:36;16.90;54.40
9271;DHT22;4673;53.458;9.940;2023-05-25T16:00:03;17.00;53.50
9271;DHT22;4673;53.458;9.940;2023-05-25T16:02:30;16.90;53.30
9271;DHT22;4673;53.458;9.940;2023-05-25T16:04:55;16.70;54.10
9271;DHT22;4673;53.458;9.940;2023-05-25T16:07:21;16.70;54.40
9271;DHT22;4673;53.458;9.940;2023-05-25T16:09:47;16.60;55.40
9271;DHT22;4673;53.458;9.940;2023-05-25T16:12:12;16.60;54.60
9271;DHT22;4673;53.458;9.940;2023-05-25T16:14:38;16.60;54.80
9271;DHT22;4673;53.458;9.940;2023-05-25T16:17:05;16.60;55.20
9271;DHT22;4673;53.458;9.940;2023-05-25T16:19:30;16.60;55.40
9271;DHT22;4673;53.458;9.940;2023-05-25T16:21:56;16.80;55.20
9271;DHT22;4673;53.458;9.940;2023-05-25T16:24:22;16.90;54.90
9271;DHT22;4673;53.458;9.940;2023-05-25T16:26:47;16.90;54.80
9271;DHT22;4673;53.458;9.940;2023-05-25T16:29:13;17.00;53.90